»·PEaware :: N9273T KSBA-KVCV

N9273T :: KSBA-KVCV

FLIGHT INFORMATION

Flight Status: Arrived
Operator: Privately registered:
United States
More flights under this callsign
Pilot: Jim L. (28297)
Aircraft: CESSNA 172 SKYHAWK
(C172)
More flights by this aircraft type
Origin: KSBA Santa Barbara Mun
United States
Destination: KVCV Socal Logistics
United States
More flights between these airports :: More routes between these airports
Route:
File this flight plan on PilotEdge
Remarks:
Altitude:
(Current/Filed)
0ft
Speed:
(Current/Filed)
0kts
Departed: 23-Nov-20 04:59 PM
Arrived: 23-Nov-20 06:06 PM
Distance/Time
Traveled:
122nm/1:07
Distance/Time
To Go:
Arrived

Flight Plot

Page will automatically refresh every two minutes.

Flight plan parsing failed; only flown route is shown


Map Options




Map Legend


Flown Route
Filed Route
Departure Airport
Arrival Airport
Navaid (VOR, NDB)
Fix

Horizontal Profiles

Position Reports

Time Latitude Longitude Heading Altitude Ground
Speed
23-Nov-20 16:51 34.432569 -119.835084 71 16ft 0kts
23-Nov-20 16:53 34.432569 -119.835084 71 16ft 0kts
23-Nov-20 16:54 34.432569 -119.835084 71 16ft 0kts
23-Nov-20 16:55 34.432569 -119.835084 71 16ft 0kts
23-Nov-20 16:56 34.432645 -119.835227 217 16ft 5kts
23-Nov-20 16:57 34.431038 -119.838660 249 16ft 14kts
23-Nov-20 16:58 34.430633 -119.839993 243 16ft 8kts
23-Nov-20 16:59 34.417157 -119.835129 162 416ft 75kts
23-Nov-20 17:00 34.395720 -119.820928 158 1242ft 89kts
23-Nov-20 17:01 34.385610 -119.792957 77 2000ft 108kts
23-Nov-20 17:02 34.385346 -119.755774 80 2780ft 111kts
23-Nov-20 17:03 34.382949 -119.718154 84 3582ft 106kts
23-Nov-20 17:04 34.378129 -119.684776 86 4394ft 99kts
23-Nov-20 17:05 34.378337 -119.649451 81 5044ft 111kts
23-Nov-20 17:06 34.376750 -119.610928 80 5662ft 114kts
23-Nov-20 17:07 34.376040 -119.575722 81 6219ft 113kts
23-Nov-20 17:07 34.375125 -119.543682 79 6723ft 112kts
23-Nov-20 17:09 34.374185 -119.499988 80 7427ft 109kts
23-Nov-20 17:09 34.372866 -119.465270 85 7496ft 134kts
23-Nov-20 17:11 34.371964 -119.414792 81 7490ft 125kts
23-Nov-20 17:12 34.370975 -119.372794 81 7491ft 123kts
23-Nov-20 17:12 34.369586 -119.337771 80 7487ft 123kts
23-Nov-20 17:13 34.368424 -119.295727 85 7471ft 125kts
23-Nov-20 17:14 34.367322 -119.253811 82 7468ft 124kts
23-Nov-20 17:16 34.366288 -119.204960 81 7471ft 123kts
23-Nov-20 17:16 34.365235 -119.170016 79 7471ft 122kts
23-Nov-20 17:17 34.364102 -119.128177 80 7471ft 123kts
23-Nov-20 17:18 34.364745 -119.086393 83 7473ft 123kts
23-Nov-20 17:19 34.364023 -119.044509 84 7472ft 124kts
23-Nov-20 17:20 34.363546 -119.002461 84 7480ft 124kts
23-Nov-20 17:21 34.362509 -118.960517 84 7485ft 124kts
23-Nov-20 17:22 34.361284 -118.918908 84 7493ft 123kts
23-Nov-20 17:23 34.361803 -118.877543 59 7501ft 116kts
23-Nov-20 17:24 34.374145 -118.841245 59 7509ft 116kts
23-Nov-20 17:25 34.386602 -118.804777 59 7516ft 117kts
23-Nov-20 17:26 34.399037 -118.768300 59 7518ft 117kts
23-Nov-20 17:27 34.411481 -118.731781 59 7518ft 117kts
23-Nov-20 17:28 34.423491 -118.696535 59 7518ft 117kts
23-Nov-20 17:29 34.435598 -118.660923 59 7519ft 117kts
23-Nov-20 17:30 34.448035 -118.624299 59 7519ft 117kts
23-Nov-20 17:31 34.459356 -118.590947 59 7518ft 116kts
23-Nov-20 17:32 34.471706 -118.554462 59 7518ft 116kts
23-Nov-20 17:33 34.484116 -118.517795 59 7518ft 116kts
23-Nov-20 17:34 34.496398 -118.481495 59 7518ft 116kts
23-Nov-20 17:35 34.508450 -118.444984 59 7518ft 116kts
23-Nov-20 17:36 34.520582 -118.408438 59 7518ft 117kts
23-Nov-20 17:37 34.532873 -118.371869 59 7517ft 116kts
23-Nov-20 17:38 34.545236 -118.335125 60 7492ft 118kts
23-Nov-20 17:39 34.557593 -118.298337 59 7489ft 117kts
23-Nov-20 17:40 34.569923 -118.261829 61 7491ft 116kts
23-Nov-20 17:41 34.582022 -118.225478 60 7489ft 116kts
23-Nov-20 17:42 34.594195 -118.189162 60 7489ft 116kts
23-Nov-20 17:43 34.606316 -118.152879 60 7490ft 116kts
23-Nov-20 17:44 34.618457 -118.116581 60 7489ft 116kts
23-Nov-20 17:45 34.630570 -118.080258 60 7489ft 116kts
23-Nov-20 17:46 34.634222 -118.040212 85 7483ft 123kts
23-Nov-20 17:47 34.632598 -117.998330 86 7480ft 124kts
23-Nov-20 17:48 34.629615 -117.956349 90 7475ft 123kts
23-Nov-20 17:49 34.626623 -117.914684 87 7470ft 123kts
23-Nov-20 17:50 34.624577 -117.873120 87 7466ft 122kts
23-Nov-20 17:51 34.622519 -117.830042 87 7216ft 137kts
23-Nov-20 17:52 34.619567 -117.782239 89 6715ft 139kts
23-Nov-20 17:53 34.616577 -117.735225 89 6211ft 139kts
23-Nov-20 17:54 34.613902 -117.688215 89 5709ft 139kts
23-Nov-20 17:55 34.611917 -117.641063 88 5203ft 139kts
23-Nov-20 17:56 34.610451 -117.593606 88 4701ft 140kts
23-Nov-20 17:57 34.609743 -117.545632 88 4198ft 142kts
23-Nov-20 17:58 34.609951 -117.497561 92 3769ft 138kts
23-Nov-20 17:59 34.607968 -117.453817 90 3762ft 124kts
23-Nov-20 18:00 34.604899 -117.412618 97 3763ft 121kts
23-Nov-20 18:01 34.610603 -117.376977 30 3762ft 113kts
23-Nov-20 18:02 34.629751 -117.355439 85 3757ft 98kts
23-Nov-20 18:03 34.614530 -117.348853 235 3411ft 73kts
23-Nov-20 18:04 34.600962 -117.365937 233 2937ft 64kts
23-Nov-20 18:05 34.595677 -117.372324 223 2887ft 8kts
23-Nov-20 18:06 34.592053 -117.372021 123 2887ft 0kts

Navigation Log

Ident Type
Flight plan parsing failed, navigation log unavailable